createdAt,value
2022-10-18T00:01:17.857Z,99332.50
2022-10-18T00:06:22.081Z,99338.88
2022-10-18T00:11:25.083Z,99342.44
2022-10-18T00:16:28.010Z,99344.25
2022-10-18T00:21:32.184Z,99347.94
2022-10-18T00:26:35.327Z,99336.19
2022-10-18T00:31:39.165Z,99337.88
2022-10-18T00:36:44.652Z,99326.00
2022-10-18T00:41:47.898Z,99311.41
2022-10-18T00:46:51.270Z,99301.50
2022-10-18T00:51:59.673Z,99300.66
2022-10-18T00:57:03.217Z,99287.06
2022-10-18T01:02:07.606Z,99294.72
2022-10-18T01:07:21.586Z,99282.41
2022-10-18T01:12:33.966Z,99268.84
2022-10-18T01:17:46.757Z,99265.97
2022-10-18T01:22:57.210Z,99276.75
2022-10-18T01:28:12.412Z,99263.16
2022-10-18T01:38:55.607Z,99275.75
2022-10-18T01:44:02.193Z,99285.50
2022-10-18T01:49:06.667Z,99290.06
2022-10-18T01:54:11.271Z,99288.47
2022-10-18T01:59:28.151Z,99295.56
2022-10-18T02:04:37.790Z,99292.75
2022-10-18T02:09:46.189Z,99284.50
2022-10-18T02:14:50.638Z,99272.63
2022-10-18T02:19:56.700Z,99276.44
2022-10-18T02:25:03.748Z,99274.22
2022-10-18T02:30:07.905Z,99278.59
2022-10-18T02:35:21.226Z,99288.47
2022-10-18T02:40:26.232Z,99283.28
2022-10-18T02:45:29.160Z,99282.28
2022-10-18T02:50:33.226Z,99272.50
2022-10-18T02:55:35.919Z,99278.88
2022-10-18T03:00:38.644Z,99293.31
2022-10-18T03:05:42.846Z,99293.31
2022-10-18T03:10:45.581Z,99290.75
2022-10-18T03:15:48.759Z,99285.38
2022-10-18T03:20:52.932Z,99291.91
2022-10-18T03:25:55.687Z,99280.72
2022-10-18T03:31:02.509Z,99277.72
2022-10-18T03:36:07.061Z,99274.91
2022-10-18T03:41:09.798Z,99267.69
2022-10-18T03:46:12.605Z,99262.31
2022-10-18T03:51:16.698Z,99270.53
2022-10-18T03:56:20.307Z,99274.03
2022-10-18T04:01:23.345Z,99270.53
2022-10-18T04:06:28.462Z,99271.34
2022-10-18T04:11:31.175Z,99275.75
2022-10-18T04:16:33.873Z,99284.09
2022-10-18T04:21:38.321Z,99286.78
2022-10-18T04:26:41.013Z,99280.41
2022-10-18T04:31:43.859Z,99285.66
2022-10-18T04:36:52.958Z,99287.50
2022-10-18T04:41:55.668Z,99284.81
2022-10-18T04:46:58.471Z,99289.88
2022-10-18T04:52:03.266Z,99293.56
2022-10-18T04:57:06.096Z,99284.38
2022-10-18T05:02:08.771Z,99283.69
2022-10-18T05:07:13.042Z,99277.31
2022-10-18T05:12:16.039Z,99286.25
2022-10-18T05:17:18.818Z,99288.22
2022-10-18T05:22:22.984Z,99290.75
2022-10-18T05:27:25.782Z,99289.06
2022-10-18T05:32:29.507Z,99297.00
2022-10-18T05:37:34.035Z,99287.78
2022-10-18T05:42:36.957Z,99295.84
2022-10-18T05:47:39.736Z,99286.78
2022-10-18T05:52:43.787Z,99287.50
2022-10-18T05:57:50.385Z,99286.66
2022-10-18T06:02:59.358Z,99299.94
2022-10-18T06:08:07.995Z,99302.63
2022-10-18T06:13:13.053Z,99306.19
2022-10-18T06:18:15.848Z,99320.34
2022-10-18T06:23:20.009Z,99316.66
2022-10-18T06:28:22.785Z,99314.66
2022-10-18T06:38:57.455Z,99317.94
2022-10-18T06:44:07.090Z,99333.91
2022-10-18T06:49:12.069Z,99337.19
2022-10-18T06:54:18.977Z,99344.78
2022-10-18T06:59:22.909Z,99354.31
2022-10-18T07:04:29.753Z,99360.69
2022-10-18T07:09:38.385Z,99367.47
2022-10-18T07:14:41.077Z,99365.72
2022-10-18T07:25:12.432Z,99356.78
2022-10-18T07:30:15.217Z,99366.81
2022-10-18T07:35:18.836Z,99367.50
2022-10-18T07:40:26.140Z,99370.81
2022-10-18T07:45:28.976Z,99374.03
2022-10-18T07:50:31.720Z,99378.72
2022-10-18T07:55:36.527Z,99392.16
2022-10-18T08:00:41.004Z,99391.16
2022-10-18T08:05:43.831Z,99404.41
2022-10-18T08:10:47.973Z,99411.44
2022-10-18T08:15:50.718Z,99413.34
2022-10-18T08:20:53.589Z,99410.53
2022-10-18T08:25:57.959Z,99413.75
2022-10-18T08:31:03.690Z,99412.06
2022-10-18T08:36:08.812Z,99406.75
2022-10-18T08:41:52.787Z,99430.34
2022-10-18T08:47:00.293Z,99431.69
2022-10-18T08:52:05.548Z,99431.53
2022-10-18T08:57:16.591Z,99437.31
2022-10-18T09:02:36.499Z,99428.22
2022-10-18T09:07:56.263Z,99426.13
2022-10-18T09:13:16.558Z,99435.38
2022-10-18T09:18:35.919Z,99443.78
2022-10-18T09:23:47.341Z,99449.78
2022-10-18T09:29:06.677Z,99454.78
2022-10-18T09:34:14.074Z,99451.94
2022-10-18T09:39:22.583Z,99464.44
2022-10-18T09:44:31.291Z,99460.72
2022-10-18T09:49:38.392Z,99456.75
2022-10-18T09:54:45.931Z,99465.94
2022-10-18T09:59:51.618Z,99474.66
2022-10-18T10:04:55.690Z,99475.72
2022-10-18T10:10:00.696Z,99483.59
2022-10-18T10:15:23.316Z,99492.97
2022-10-18T10:20:34.062Z,99495.78
2022-10-18T10:25:39.122Z,99504.31
2022-10-18T10:30:43.523Z,99493.88
2022-10-18T10:35:53.453Z,99487.28
2022-10-18T10:40:56.956Z,99494.75
2022-10-18T10:46:04.663Z,99496.16
2022-10-18T10:51:09.845Z,99497.31
2022-10-18T10:56:21.700Z,99499.63
2022-10-18T11:01:30.174Z,99496.94
2022-10-18T11:06:40.475Z,99495.16
2022-10-18T11:11:49.878Z,99498.00
2022-10-18T11:17:07.711Z,99490.19
2022-10-18T11:22:17.026Z,99495.06
2022-10-18T11:27:25.992Z,99497.19
2022-10-18T11:32:40.404Z,99493.34
2022-10-18T11:38:02.094Z,99491.34
2022-10-18T11:43:14.920Z,99496.84
2022-10-18T11:48:44.653Z,99494.72
2022-10-18T11:54:04.731Z,99487.78
2022-10-18T11:59:24.589Z,99476.41
2022-10-18T12:10:04.079Z,99475.25
2022-10-18T12:15:19.348Z,99478.84
2022-10-18T12:20:28.462Z,99473.41
2022-10-18T12:25:35.756Z,99466.84
2022-10-18T12:30:43.374Z,99469.38
2022-10-18T12:36:02.165Z,99469.97
2022-10-18T12:41:06.662Z,99471.34
2022-10-18T12:46:14.296Z,99466.25
2022-10-18T12:51:20.644Z,99467.88
2022-10-18T12:56:37.951Z,99468.66
2022-10-18T13:01:59.848Z,99462.19
2022-10-18T13:07:19.787Z,99462.84
2022-10-18T13:12:50.799Z,99470.88
2022-10-18T13:17:56.662Z,99455.78
2022-10-18T13:23:08.639Z,99450.66
2022-10-18T13:28:20.042Z,99458.13
2022-10-18T13:33:29.938Z,99465.63
2022-10-18T13:38:40.142Z,99468.97
2022-10-18T13:43:57.837Z,99468.84
2022-10-18T13:49:20.857Z,99467.63
2022-10-18T13:54:46.845Z,99471.88
2022-10-18T13:59:56.630Z,99474.06
2022-10-18T14:05:24.722Z,99473.91
2022-10-18T14:10:43.819Z,99477.47
2022-10-18T14:15:58.422Z,99481.47
2022-10-18T14:21:13.377Z,99475.84
2022-10-18T14:26:19.690Z,99485.69
2022-10-18T14:31:22.219Z,99476.22
2022-10-18T14:36:27.250Z,99488.56
2022-10-18T14:41:33.897Z,99484.75
2022-10-18T14:46:42.718Z,99492.00
2022-10-18T14:51:50.692Z,99492.16
2022-10-18T14:56:54.871Z,99503.47
2022-10-18T15:01:59.408Z,99501.44
2022-10-18T15:07:05.326Z,99498.53
2022-10-18T15:12:13.028Z,99489.19
2022-10-18T15:17:19.013Z,99490.91
2022-10-18T15:22:31.674Z,99487.59
2022-10-18T15:27:38.802Z,99488.44
2022-10-18T15:32:48.421Z,99485.41
2022-10-18T15:37:51.744Z,99488.38
2022-10-18T15:42:56.613Z,99483.34
2022-10-18T15:48:03.066Z,99480.59
2022-10-18T15:53:24.461Z,99486.13
2022-10-18T15:58:29.921Z,99494.31
2022-10-18T16:03:34.765Z,99492.22
2022-10-18T16:08:40.592Z,99486.63
2022-10-18T16:13:45.012Z,99492.84
2022-10-18T16:18:47.556Z,99493.56
2022-10-18T16:23:50.994Z,99490.25
2022-10-18T16:28:57.125Z,99490.59
2022-10-18T16:34:00.149Z,99488.63
2022-10-18T16:39:07.485Z,99500.16
2022-10-18T16:44:12.941Z,99497.59
2022-10-18T16:54:22.889Z,99508.66
2022-10-18T16:59:28.850Z,99518.72
2022-10-18T17:04:31.469Z,99521.25
2022-10-18T17:09:35.027Z,99531.97
2022-10-18T17:14:39.167Z,99545.28
2022-10-18T17:19:42.499Z,99541.69
2022-10-18T17:24:45.029Z,99542.13
2022-10-18T17:29:49.052Z,99550.03
2022-10-18T17:34:51.884Z,99561.72
2022-10-18T17:45:22.792Z,99558.53
2022-10-18T17:50:25.317Z,99559.63
2022-10-18T17:55:30.086Z,99560.31
2022-10-18T18:00:34.511Z,99560.00
2022-10-18T18:05:37.155Z,99556.41
2022-10-18T18:10:39.735Z,99562.28
2022-10-18T18:15:43.656Z,99563.53
2022-10-18T18:20:53.309Z,99561.41
2022-10-18T18:25:58.081Z,99564.81
2022-10-18T18:31:05.656Z,99564.53
2022-10-18T18:36:08.742Z,99563.00
2022-10-18T18:41:12.617Z,99569.50
2022-10-18T18:46:16.643Z,99572.56
2022-10-18T18:51:21.341Z,99578.22
2022-10-18T18:56:24.867Z,99576.78
2022-10-18T19:01:30.258Z,99579.09
2022-10-18T19:06:35.184Z,99572.69
2022-10-18T19:11:39.029Z,99573.56
2022-10-18T19:16:47.127Z,99571.63
2022-10-18T19:21:52.133Z,99567.47
2022-10-18T19:26:56.414Z,99573.59
2022-10-18T19:32:02.145Z,99571.91
2022-10-18T19:37:05.135Z,99570.16
2022-10-18T19:42:09.969Z,99571.75
2022-10-18T19:47:14.753Z,99574.31
2022-10-18T19:52:18.163Z,99564.94
2022-10-18T19:57:20.755Z,99565.91
2022-10-18T20:02:25.040Z,99575.47
2022-10-18T20:07:27.596Z,99576.91
2022-10-18T20:12:30.538Z,99577.00
2022-10-18T20:17:34.786Z,99581.53
2022-10-18T20:22:37.325Z,99576.75
2022-10-18T20:27:39.957Z,99581.38
2022-10-18T20:32:43.875Z,99588.91
2022-10-18T20:37:46.410Z,99586.25
2022-10-18T20:42:49.049Z,99587.72
2022-10-18T20:47:53.205Z,99594.00
2022-10-18T20:52:55.838Z,99599.22
2022-10-18T20:57:59.041Z,99595.56
2022-10-18T21:03:03.288Z,99597.28
2022-10-18T21:08:06.062Z,99597.06
2022-10-18T21:13:08.648Z,99590.75
2022-10-18T21:18:12.553Z,99586.13
2022-10-18T21:23:15.657Z,99588.69
2022-10-18T21:28:18.284Z,99592.97
2022-10-18T21:33:23.221Z,99579.19
2022-10-18T21:38:26.247Z,99581.38
2022-10-18T21:43:29.259Z,99582.19
2022-10-18T21:48:33.212Z,99574.81
2022-10-18T21:53:36.485Z,99577.09
2022-10-18T21:58:39.603Z,99574.78
2022-10-18T22:03:43.843Z,99575.75
2022-10-18T22:08:49.290Z,99574.03
2022-10-18T22:13:52.898Z,99572.34
2022-10-18T22:19:00.329Z,99570.50
2022-10-18T22:24:05.340Z,99570.41
2022-10-18T22:29:09.437Z,99567.91
2022-10-18T22:34:14.514Z,99567.63
2022-10-18T22:39:18.294Z,99564.78
2022-10-18T22:44:20.880Z,99561.75
2022-10-18T22:49:24.750Z,99551.63
2022-10-18T22:54:28.311Z,99555.75
2022-10-18T22:59:30.816Z,99563.59
2022-10-18T23:04:35.295Z,99559.13
2022-10-18T23:09:37.980Z,99559.97
2022-10-18T23:14:40.519Z,99559.78
2022-10-18T23:19:45.132Z,99559.28
2022-10-18T23:24:47.765Z,99562.19
2022-10-18T23:29:50.309Z,99558.91
2022-10-18T23:34:54.227Z,99557.97
2022-10-18T23:39:57.355Z,99559.78
2022-10-18T23:45:00.785Z,99555.97
2022-10-18T23:50:05.368Z,99559.50
2022-10-18T23:55:08.567Z,99564.97
